createdAt,value
2018-04-11T00:00:05.646Z,13.98
2018-04-11T00:02:40.308Z,13.99
2018-04-11T00:05:14.920Z,13.99
2018-04-11T00:07:49.547Z,13.88
2018-04-11T00:10:24.174Z,13.87
2018-04-11T00:12:58.592Z,13.86
2018-04-11T00:15:32.995Z,13.85
2018-04-11T00:18:07.639Z,13.89
2018-04-11T00:20:42.150Z,13.99
2018-04-11T00:23:16.705Z,14.05
2018-04-11T00:25:51.948Z,14.10
2018-04-11T00:28:26.562Z,14.17
2018-04-11T00:31:01.907Z,14.22
2018-04-11T00:33:36.546Z,14.29
2018-04-11T00:36:11.775Z,14.32
2018-04-11T00:38:46.444Z,14.29
2018-04-11T00:41:21.143Z,14.34
2018-04-11T00:43:55.742Z,14.27
2018-04-11T00:46:30.166Z,14.26
2018-04-11T00:49:04.682Z,14.30
2018-04-11T00:51:39.345Z,14.27
2018-04-11T00:54:14.658Z,14.24
2018-04-11T00:56:49.332Z,14.23
2018-04-11T00:59:23.907Z,14.16
2018-04-11T01:01:58.566Z,14.10
2018-04-11T01:04:33.044Z,14.10
2018-04-11T01:07:07.610Z,14.11
2018-04-11T01:09:43.008Z,14.15
2018-04-11T01:12:17.609Z,14.21
2018-04-11T01:14:52.110Z,14.25
2018-04-11T01:17:26.540Z,14.29
2018-04-11T01:20:01.140Z,14.31
2018-04-11T01:22:35.663Z,14.33
2018-04-11T01:25:11.049Z,14.35
2018-04-11T01:27:45.650Z,14.36
2018-04-11T01:30:20.919Z,14.37
2018-04-11T01:32:55.377Z,14.35
2018-04-11T01:35:29.991Z,14.38
2018-04-11T01:38:04.429Z,14.40
2018-04-11T01:40:39.807Z,14.40
2018-04-11T01:43:14.217Z,14.35
2018-04-11T01:45:48.829Z,14.36
2018-04-11T01:48:23.432Z,14.40
2018-04-11T01:50:58.048Z,14.42
2018-04-11T01:53:33.498Z,14.40
2018-04-11T01:56:08.075Z,14.43
2018-04-11T01:58:42.643Z,14.45
2018-04-11T02:01:17.236Z,14.42
2018-04-11T02:03:51.766Z,14.35
2018-04-11T02:06:27.178Z,14.33
2018-04-11T02:09:01.855Z,14.34
2018-04-11T02:11:36.442Z,14.31
2018-04-11T02:14:11.072Z,14.27
2018-04-11T02:16:45.567Z,14.32
2018-04-11T02:19:20.113Z,14.36
2018-04-11T02:21:54.717Z,14.42
2018-04-11T02:24:29.306Z,14.33
2018-04-11T02:27:03.865Z,14.33
2018-04-11T02:29:38.574Z,14.18
2018-04-11T02:32:13.350Z,14.13
2018-04-11T02:34:49.026Z,14.12
2018-04-11T02:37:23.596Z,14.13
2018-04-11T02:39:58.159Z,14.15
2018-04-11T02:42:33.457Z,14.11
2018-04-11T02:45:08.006Z,14.22
2018-04-11T02:47:42.527Z,14.20
2018-04-11T02:50:17.205Z,14.19
2018-04-11T02:52:52.446Z,14.16
2018-04-11T02:55:26.952Z,14.23
2018-04-11T02:58:01.720Z,14.28
2018-04-11T03:00:37.064Z,14.23
2018-04-11T03:03:11.669Z,14.20
2018-04-11T03:05:46.288Z,13.97
2018-04-11T03:08:20.772Z,13.94
2018-04-11T03:10:56.050Z,13.89
2018-04-11T03:13:31.399Z,13.78
2018-04-11T03:16:05.988Z,13.65
2018-04-11T03:18:41.299Z,13.63
2018-04-11T03:21:16.541Z,13.58
2018-04-11T03:23:51.016Z,13.69
2018-04-11T03:26:25.608Z,13.66
2018-04-11T03:29:00.174Z,13.41
2018-04-11T03:31:34.709Z,13.39
2018-04-11T03:34:09.372Z,13.32
2018-04-11T03:36:43.833Z,13.34
2018-04-11T03:39:18.374Z,13.35
2018-04-11T03:41:52.945Z,13.36
2018-04-11T03:44:28.242Z,13.38
2018-04-11T03:47:02.887Z,13.36
2018-04-11T03:49:37.483Z,13.38
2018-04-11T03:52:11.993Z,13.30
2018-04-11T03:54:47.173Z,13.35
2018-04-11T03:57:21.801Z,13.41
2018-04-11T03:59:56.495Z,13.35
2018-04-11T04:02:30.934Z,13.42
2018-04-11T04:05:05.368Z,13.37
2018-04-11T04:07:40.046Z,13.48
2018-04-11T04:10:15.425Z,13.49
2018-04-11T04:12:49.996Z,13.57
2018-04-11T04:15:42.308Z,13.63
2018-04-11T04:18:34.902Z,13.67
2018-04-11T04:21:10.330Z,13.69
2018-04-11T04:23:44.951Z,13.71
2018-04-11T04:26:19.639Z,13.73
2018-04-11T04:28:54.186Z,13.73
2018-04-11T04:31:29.445Z,13.77
2018-04-11T04:34:04.065Z,13.73
2018-04-11T04:36:38.659Z,13.71
2018-04-11T04:39:13.942Z,13.68
2018-04-11T04:41:48.513Z,13.64
2018-04-11T04:44:23.122Z,13.64
2018-04-11T04:46:58.512Z,13.64
2018-04-11T04:49:33.170Z,13.65
2018-04-11T04:52:07.834Z,13.64
2018-04-11T04:54:43.116Z,13.65
2018-04-11T04:57:17.716Z,13.65
2018-04-11T04:59:47.051Z,13.68
2018-04-11T05:02:16.364Z,13.69
2018-04-11T05:04:45.697Z,13.72
2018-04-11T05:07:15.051Z,13.73
2018-04-11T05:09:44.374Z,13.73
2018-04-11T05:12:13.683Z,13.72
2018-04-11T05:14:43.809Z,13.56
2018-04-11T05:17:13.893Z,13.53
2018-04-11T05:19:43.216Z,13.56
2018-04-11T05:22:23.390Z,13.59
2018-04-11T05:24:56.212Z,13.52
2018-04-11T05:27:25.563Z,13.43
2018-04-11T05:29:55.680Z,13.28
2018-04-11T05:32:25.119Z,13.25
2018-04-11T05:34:54.432Z,13.19
2018-04-11T05:37:23.751Z,13.17
2018-04-11T05:39:53.120Z,13.14
2018-04-11T05:42:22.448Z,13.17
2018-04-11T05:44:51.761Z,13.14
2018-04-11T05:47:21.125Z,13.13
2018-04-11T05:49:51.255Z,13.07
2018-04-11T05:52:21.335Z,13.08
2018-04-11T05:54:50.670Z,13.10
2018-04-11T05:57:20.055Z,13.07
2018-04-11T05:59:49.409Z,13.07
2018-04-11T06:02:18.759Z,13.12
2018-04-11T06:04:48.169Z,13.18
2018-04-11T06:07:17.560Z,13.22
2018-04-11T06:09:46.944Z,13.24
2018-04-11T06:12:17.064Z,13.26
2018-04-11T06:14:46.415Z,13.29
2018-04-11T06:17:18.432Z,13.34
2018-04-11T06:19:48.037Z,13.41
2018-04-11T06:22:17.435Z,13.45
2018-04-11T06:24:46.772Z,13.52
2018-04-11T06:27:16.924Z,13.59
2018-04-11T06:29:46.266Z,13.63
2018-04-11T06:32:15.586Z,13.63
2018-04-11T06:34:44.960Z,13.67
2018-04-11T06:37:14.279Z,13.70
2018-04-11T06:39:43.612Z,13.74
2018-04-11T06:42:12.963Z,13.78
2018-04-11T06:44:42.357Z,13.81
2018-04-11T06:47:11.704Z,13.85
2018-04-11T06:49:41.112Z,13.91
2018-04-11T06:52:12.916Z,13.98
2018-04-11T06:54:43.007Z,14.12
2018-04-11T06:57:12.371Z,14.24
2018-04-11T06:59:41.708Z,14.33
2018-04-11T07:02:11.048Z,14.34
2018-04-11T07:04:41.197Z,14.38
2018-04-11T07:07:10.526Z,14.40
2018-04-11T07:09:39.899Z,14.38
2018-04-11T07:12:09.231Z,14.39
2018-04-11T07:14:38.602Z,14.41
2018-04-11T07:17:07.962Z,14.44
2018-04-11T07:19:37.366Z,14.42
2018-04-11T07:22:07.394Z,14.46
2018-04-11T07:24:38.269Z,14.51
2018-04-11T07:27:07.636Z,14.53
2018-04-11T07:29:37.037Z,14.53
2018-04-11T07:32:07.129Z,14.53
2018-04-11T07:34:36.462Z,14.56
2018-04-11T07:37:06.618Z,14.53
2018-04-11T07:39:35.933Z,14.55
2018-04-11T07:42:05.269Z,14.46
2018-04-11T07:44:34.631Z,14.58
2018-04-11T07:47:04.068Z,14.67
2018-04-11T07:49:33.429Z,14.68
2018-04-11T07:52:02.840Z,14.73
2018-04-11T07:54:32.228Z,14.70
2018-04-11T07:57:01.552Z,14.59
2018-04-11T07:59:30.891Z,14.63
2018-04-11T08:02:00.286Z,14.62
2018-04-11T08:04:29.645Z,14.72
2018-04-11T08:06:58.972Z,14.80
2018-04-11T08:09:28.383Z,14.90
2018-04-11T08:11:57.738Z,15.01
2018-04-11T08:14:27.852Z,15.12
2018-04-11T08:16:57.226Z,15.24
2018-04-11T08:19:26.577Z,15.34
2018-04-11T08:21:56.744Z,15.30
2018-04-11T08:24:26.122Z,15.28
2018-04-11T08:26:55.793Z,15.21
2018-04-11T08:29:25.183Z,15.17
2018-04-11T08:31:54.556Z,15.13
2018-04-11T08:34:23.905Z,15.08
2018-04-11T08:36:55.073Z,15.09
2018-04-11T08:39:24.424Z,15.14
2018-04-11T08:41:53.831Z,15.22
2018-04-11T08:44:23.177Z,15.30
2018-04-11T08:46:53.274Z,15.26
2018-04-11T08:49:23.045Z,15.18
2018-04-11T08:51:52.616Z,15.09
2018-04-11T08:54:21.949Z,15.07
2018-04-11T08:56:51.318Z,15.07
2018-04-11T08:59:21.439Z,15.01
2018-04-11T09:01:51.554Z,15.03
2018-04-11T09:04:21.766Z,15.08
2018-04-11T09:06:51.093Z,15.23
2018-04-11T09:09:21.028Z,15.34
2018-04-11T09:11:50.367Z,15.46
2018-04-11T09:14:19.771Z,15.57
2018-04-11T09:16:49.099Z,15.62
2018-04-11T09:19:18.440Z,15.59
2018-04-11T09:21:47.791Z,15.59
2018-04-11T09:24:17.117Z,15.61
2018-04-11T09:26:46.432Z,15.55
2018-04-11T09:29:16.561Z,15.47
2018-04-11T09:31:46.804Z,15.48
2018-04-11T09:34:16.108Z,15.46
2018-04-11T09:36:46.215Z,15.45
2018-04-11T09:39:15.548Z,15.49
2018-04-11T09:41:44.898Z,15.53
2018-04-11T09:44:14.974Z,15.49
2018-04-11T09:46:44.334Z,15.44
2018-04-11T09:49:14.465Z,15.48
2018-04-11T09:51:44.590Z,15.47
2018-04-11T09:54:14.568Z,15.56
2018-04-11T09:56:45.600Z,15.65
2018-04-11T09:59:15.260Z,15.79
2018-04-11T10:01:50.825Z,16.03
2018-04-11T10:04:20.145Z,16.16
2018-04-11T10:06:49.485Z,16.25
2018-04-11T10:09:19.629Z,16.32
2018-04-11T10:11:49.207Z,16.35
2018-04-11T10:14:18.543Z,16.40
2018-04-11T10:16:47.895Z,16.42
2018-04-11T10:19:17.239Z,16.46
2018-04-11T10:21:47.330Z,16.51
2018-04-11T10:24:16.705Z,16.46
2018-04-11T10:26:46.081Z,16.47
2018-04-11T10:29:15.444Z,16.43
2018-04-11T10:31:44.791Z,16.42
2018-04-11T10:34:14.125Z,16.38
2018-04-11T10:36:43.478Z,16.37
2018-04-11T10:39:13.600Z,16.38
2018-04-11T10:41:43.714Z,16.35
2018-04-11T10:44:13.833Z,16.43
2018-04-11T10:46:44.387Z,16.45
2018-04-11T10:49:13.847Z,16.42
2018-04-11T10:51:43.193Z,16.38
2018-04-11T10:54:12.533Z,16.33
2018-04-11T10:56:41.894Z,16.37
2018-04-11T10:59:11.995Z,16.47
2018-04-11T11:01:42.135Z,16.63
2018-04-11T11:04:12.357Z,16.93
2018-04-11T11:06:42.451Z,17.07
2018-04-11T11:09:11.801Z,17.28
2018-04-11T11:11:41.132Z,17.67
2018-04-11T11:14:10.448Z,17.92
2018-04-11T11:16:40.386Z,17.97
2018-04-11T11:19:10.496Z,17.72
2018-04-11T11:21:39.848Z,17.78
2018-04-11T11:24:09.973Z,17.82
2018-04-11T11:26:39.342Z,17.81
2018-04-11T11:29:10.327Z,17.78
2018-04-11T11:31:39.976Z,17.86
2018-04-11T11:34:09.331Z,17.99
2018-04-11T11:36:39.454Z,18.16
2018-04-11T11:39:08.803Z,18.47
2018-04-11T11:41:38.147Z,19.12
2018-04-11T11:44:07.742Z,19.53
2018-04-11T11:46:37.846Z,19.66
2018-04-11T11:49:07.277Z,19.58
2018-04-11T11:51:36.632Z,19.46
2018-04-11T11:54:05.971Z,19.38
2018-04-11T11:56:36.059Z,19.21
2018-04-11T11:59:05.403Z,19.05
2018-04-11T12:01:35.536Z,18.90
2018-04-11T12:04:04.934Z,18.57
2018-04-11T12:06:35.239Z,18.31
2018-04-11T12:09:09.940Z,17.89
2018-04-11T12:11:52.576Z,17.52
2018-04-11T12:14:22.123Z,16.75
2018-04-11T12:16:52.435Z,16.21
2018-04-11T12:19:21.808Z,15.99
2018-04-11T12:21:51.144Z,15.72
2018-04-11T12:24:20.511Z,15.68
2018-04-11T12:26:50.671Z,15.61
2018-04-11T12:29:20.744Z,15.63
2018-04-11T12:31:50.109Z,15.57
2018-04-11T12:34:19.432Z,15.59
2018-04-11T12:36:48.786Z,15.49
2018-04-11T12:39:18.161Z,15.51
2018-04-11T12:41:48.432Z,15.50
2018-04-11T12:44:17.747Z,15.76
2018-04-11T12:46:47.078Z,15.90
2018-04-11T12:49:16.486Z,15.89
2018-04-11T12:51:45.785Z,15.99
2018-04-11T12:54:15.144Z,16.77
2018-04-11T12:56:44.529Z,17.11
2018-04-11T12:59:14.698Z,17.55
2018-04-11T13:01:44.159Z,17.70
2018-04-11T13:04:14.288Z,17.65
2018-04-11T13:06:44.455Z,17.63
2018-04-11T13:09:13.792Z,17.29
2018-04-11T13:11:43.149Z,17.11
2018-04-11T13:14:12.578Z,16.99
2018-04-11T13:16:41.906Z,16.81
2018-04-11T13:19:11.291Z,16.82
2018-04-11T13:21:41.663Z,17.11
2018-04-11T13:24:10.979Z,17.70
2018-04-11T13:26:40.371Z,17.92
2018-04-11T13:29:09.716Z,18.60
2018-04-11T13:31:39.128Z,18.97
2018-04-11T13:34:08.436Z,18.93
2018-04-11T13:36:37.774Z,18.79
2018-04-11T13:39:07.896Z,18.38
2018-04-11T13:41:37.263Z,17.99
2018-04-11T13:44:08.104Z,17.29
2018-04-11T13:46:37.446Z,17.10
2018-04-11T13:49:06.765Z,17.01
2018-04-11T13:51:36.739Z,16.88
2018-04-11T13:54:06.162Z,16.81
2018-04-11T13:56:37.134Z,16.78
2018-04-11T13:59:06.488Z,16.62
2018-04-11T14:01:36.659Z,16.63
2018-04-11T14:04:06.006Z,16.61
2018-04-11T14:06:35.338Z,16.60
2018-04-11T14:09:06.502Z,16.65
2018-04-11T14:11:35.873Z,16.70
2018-04-11T14:14:06.006Z,16.73
2018-04-11T14:16:36.245Z,16.66
2018-04-11T14:19:06.265Z,16.57
2018-04-11T14:21:35.623Z,16.31
2018-04-11T14:24:05.583Z,16.22
2018-04-11T14:26:34.936Z,16.11
2018-04-11T14:29:04.308Z,15.90
2018-04-11T14:31:33.751Z,15.89
2018-04-11T14:34:03.051Z,15.75
2018-04-11T14:36:33.034Z,15.63
2018-04-11T14:39:02.439Z,15.64
2018-04-11T14:41:31.775Z,15.51
2018-04-11T14:44:01.128Z,15.56
2018-04-11T14:46:31.361Z,15.62
2018-04-11T14:49:00.713Z,15.67
2018-04-11T14:51:30.090Z,15.72
2018-04-11T14:53:59.457Z,15.82
2018-04-11T14:56:28.811Z,15.85
2018-04-11T14:58:58.152Z,15.84
2018-04-11T15:01:28.271Z,15.81
2018-04-11T15:03:58.367Z,15.79
2018-04-11T15:06:27.711Z,15.89
2018-04-11T15:08:57.060Z,15.88
2018-04-11T15:11:26.410Z,15.76
2018-04-11T15:13:56.542Z,15.81
2018-04-11T15:16:25.892Z,15.89
2018-04-11T15:18:55.226Z,15.98
2018-04-11T15:21:27.579Z,15.88
2018-04-11T15:23:56.919Z,15.87
2018-04-11T15:26:27.068Z,15.99
2018-04-11T15:28:56.391Z,16.00
2018-04-11T15:31:26.065Z,16.12
2018-04-11T15:33:55.413Z,16.01
2018-04-11T15:36:24.753Z,16.07
2018-04-11T15:38:54.839Z,16.02
2018-04-11T15:41:24.192Z,16.03
2018-04-11T15:43:53.503Z,16.11
2018-04-11T15:46:40.220Z,16.17
2018-04-11T15:49:10.932Z,16.14
2018-04-11T15:51:41.002Z,16.11
2018-04-11T15:54:10.366Z,16.13
2018-04-11T15:56:39.697Z,16.24
2018-04-11T15:59:09.043Z,16.30
2018-04-11T16:01:39.166Z,16.20
2018-04-11T16:04:09.271Z,16.25
2018-04-11T16:06:38.623Z,16.24
2018-04-11T16:09:08.122Z,16.25
2018-04-11T16:11:38.212Z,16.27
2018-04-11T16:14:07.535Z,16.27
2018-04-11T16:16:37.666Z,16.32
2018-04-11T16:19:07.018Z,16.27
2018-04-11T16:21:36.382Z,16.27
2018-04-11T16:24:05.707Z,16.28
2018-04-11T16:26:35.025Z,16.37
2018-04-11T16:29:05.361Z,16.49
2018-04-11T16:31:34.785Z,16.60
2018-04-11T16:34:04.096Z,16.66
2018-04-11T16:36:34.170Z,16.64
2018-04-11T16:39:03.504Z,16.62
2018-04-11T16:41:33.126Z,16.62
2018-04-11T16:44:03.243Z,16.56
2018-04-11T16:46:33.326Z,16.59
2018-04-11T16:49:02.661Z,16.58
2018-04-11T16:51:31.974Z,16.64
2018-04-11T16:54:02.048Z,16.66
2018-04-11T16:56:31.390Z,16.72
2018-04-11T16:59:01.775Z,16.79
2018-04-11T17:01:31.112Z,16.91
2018-04-11T17:04:00.425Z,17.01
2018-04-11T17:06:30.482Z,17.07
2018-04-11T17:09:00.501Z,17.16
2018-04-11T17:11:29.845Z,17.22
2018-04-11T17:13:59.139Z,17.00
2018-04-11T17:16:28.483Z,16.94
2018-04-11T17:18:58.560Z,16.80
2018-04-11T17:21:45.621Z,16.77
2018-04-11T17:24:33.985Z,16.75
2018-04-11T17:27:21.245Z,16.68
2018-04-11T17:30:08.531Z,16.63
2018-04-11T17:32:37.874Z,16.49
2018-04-11T17:35:07.166Z,16.53
2018-04-11T17:37:37.785Z,16.55
2018-04-11T17:40:07.103Z,16.53
2018-04-11T17:42:36.403Z,16.47
2018-04-11T17:45:05.759Z,16.43
2018-04-11T17:47:40.720Z,16.44
2018-04-11T17:50:10.094Z,16.37
2018-04-11T17:55:14.843Z,16.30
2018-04-11T17:57:44.972Z,16.11
2018-04-11T18:00:18.545Z,16.03
2018-04-11T18:02:47.870Z,15.92
2018-04-11T18:05:17.938Z,15.86
2018-04-11T18:07:47.256Z,15.78
2018-04-11T18:10:16.599Z,15.74
2018-04-11T18:12:46.671Z,15.68
2018-04-11T18:15:15.986Z,15.62
2018-04-11T18:17:45.295Z,15.53
2018-04-11T18:20:14.592Z,15.45
2018-04-11T18:22:43.916Z,15.33
2018-04-11T18:25:13.246Z,15.27
2018-04-11T18:27:42.571Z,15.16
2018-04-11T18:30:11.875Z,15.15
2018-04-11T18:32:41.198Z,15.03
2018-04-11T18:35:10.499Z,14.95
2018-04-11T18:37:39.812Z,14.89
2018-04-11T18:40:09.133Z,14.84
2018-04-11T18:42:38.439Z,14.77
2018-04-11T18:45:08.556Z,14.73
2018-04-11T18:47:37.894Z,14.67
2018-04-11T18:50:07.190Z,14.62
2018-04-11T18:52:36.516Z,14.58
2018-04-11T18:55:05.820Z,14.51
2018-04-11T18:57:35.120Z,14.45
2018-04-11T19:00:04.502Z,14.39
2018-04-11T19:02:33.890Z,14.34
2018-04-11T19:05:03.973Z,14.29
2018-04-11T19:07:33.293Z,14.25
2018-04-11T19:10:02.613Z,14.13
2018-04-11T19:12:32.694Z,14.03
2018-04-11T19:15:02.004Z,14.01
2018-04-11T19:17:31.325Z,13.97
2018-04-11T19:20:00.623Z,13.91
2018-04-11T19:22:29.980Z,13.91
2018-04-11T19:24:59.338Z,13.85
2018-04-11T19:27:28.648Z,13.76
2018-04-11T19:29:58.726Z,13.74
2018-04-11T19:32:28.056Z,13.82
2018-04-11T19:34:57.352Z,13.92
2018-04-11T19:37:26.710Z,13.97
2018-04-11T19:39:56.026Z,13.96
2018-04-11T19:42:25.339Z,14.00
2018-04-11T19:44:54.657Z,13.95
2018-04-11T19:47:23.965Z,13.91
2018-04-11T19:49:53.315Z,13.89
2018-04-11T19:52:23.398Z,13.86
2018-04-11T19:54:52.708Z,13.82
2018-04-11T19:57:22.909Z,13.90
2018-04-11T19:59:52.240Z,13.95
2018-04-11T20:02:22.328Z,13.96
2018-04-11T20:04:51.677Z,13.98
2018-04-11T20:07:20.987Z,13.96
2018-04-11T20:09:50.309Z,14.02
2018-04-11T20:12:19.636Z,13.96
2018-04-11T20:14:49.176Z,13.77
2018-04-11T20:17:18.557Z,13.63
2018-04-11T20:19:47.892Z,13.54
2018-04-11T20:22:17.234Z,13.54
2018-04-11T20:24:46.563Z,13.56
2018-04-11T20:27:15.863Z,13.57
2018-04-11T20:29:45.225Z,13.56
2018-04-11T20:32:14.590Z,13.53
2018-04-11T20:34:43.905Z,13.54
2018-04-11T20:37:13.970Z,13.51
2018-04-11T20:39:43.294Z,13.47
2018-04-11T20:42:12.628Z,13.47
2018-04-11T20:44:42.704Z,13.41
2018-04-11T20:47:12.027Z,13.44
2018-04-11T20:49:41.364Z,13.55
2018-04-11T20:52:10.661Z,13.67
2018-04-11T20:54:39.993Z,13.72
2018-04-11T20:57:09.337Z,13.78
2018-04-11T20:59:38.662Z,13.77
2018-04-11T21:02:08.772Z,13.77
2018-04-11T21:04:38.851Z,13.74
2018-04-11T21:07:08.186Z,13.71
2018-04-11T21:09:37.548Z,13.70
2018-04-11T21:12:06.861Z,13.68
2018-04-11T21:14:36.176Z,13.62
2018-04-11T21:17:05.515Z,13.64
2018-04-11T21:19:35.603Z,13.60
2018-04-11T21:22:04.942Z,13.59
2018-04-11T21:24:35.039Z,13.58
2018-04-11T21:27:04.453Z,13.52
2018-04-11T21:29:34.556Z,13.47
2018-04-11T21:32:03.874Z,13.44
2018-04-11T21:34:33.991Z,13.48
2018-04-11T21:37:03.327Z,13.43
2018-04-11T21:39:32.669Z,13.35
2018-04-11T21:42:01.987Z,13.39
2018-04-11T21:44:31.339Z,13.34
2018-04-11T21:47:00.675Z,13.31
2018-04-11T21:49:30.002Z,13.27
2018-04-11T21:51:59.370Z,13.33
2018-04-11T21:54:28.706Z,13.31
2018-04-11T21:56:58.019Z,13.31
2018-04-11T21:59:28.116Z,13.27
2018-04-11T22:01:57.427Z,13.31
2018-04-11T22:04:26.781Z,13.31
2018-04-11T22:06:56.095Z,13.30
2018-04-11T22:09:25.433Z,13.28
2018-04-11T22:11:54.775Z,13.37
2018-04-11T22:14:24.095Z,13.34
2018-04-11T22:16:55.754Z,13.34
2018-04-11T22:19:25.098Z,13.35
2018-04-11T22:21:54.442Z,13.37
2018-04-11T22:24:24.546Z,13.37
2018-04-11T22:26:54.627Z,13.34
2018-04-11T22:29:23.965Z,13.31
2018-04-11T22:31:53.300Z,13.22
2018-04-11T22:34:22.624Z,13.20
2018-04-11T22:36:51.971Z,13.22
2018-04-11T22:39:21.272Z,13.25
2018-04-11T22:41:50.615Z,13.21
2018-04-11T22:44:19.953Z,13.27
2018-04-11T22:46:49.274Z,13.31
2018-04-11T22:49:18.631Z,13.32
2018-04-11T22:51:47.948Z,13.31
2018-04-11T22:54:17.279Z,13.35
2018-04-11T22:56:46.636Z,13.22
2018-04-11T22:59:16.285Z,13.24
2018-04-11T23:01:46.510Z,13.23
2018-04-11T23:04:15.870Z,13.23
2018-04-11T23:06:45.185Z,13.23
2018-04-11T23:09:14.545Z,13.23
2018-04-11T23:11:44.686Z,13.24
2018-04-11T23:14:14.013Z,13.25
2018-04-11T23:16:43.376Z,13.27
2018-04-11T23:19:13.481Z,13.21
2018-04-11T23:21:42.805Z,13.12
2018-04-11T23:24:12.942Z,13.10
2018-04-11T23:26:42.279Z,13.15
2018-04-11T23:29:11.629Z,13.20
2018-04-11T23:31:41.746Z,13.12
2018-04-11T23:34:11.845Z,13.13
2018-04-11T23:36:41.204Z,13.08
2018-04-11T23:39:10.533Z,13.01
2018-04-11T23:41:39.864Z,12.93
2018-04-11T23:44:09.243Z,12.97
2018-04-11T23:46:38.599Z,12.96
2018-04-11T23:49:07.934Z,12.95
2018-04-11T23:51:37.297Z,12.89
2018-04-11T23:54:07.442Z,12.88
2018-04-11T23:56:36.764Z,12.94
2018-04-11T23:59:06.857Z,12.93
